createdAt,value
2019-03-09T00:02:14.461Z,-2.80
2019-03-09T00:04:41.232Z,-2.80
2019-03-09T00:07:08.096Z,-2.80
2019-03-09T00:09:35.457Z,-2.70
2019-03-09T00:12:03.095Z,-2.80
2019-03-09T00:14:30.005Z,-2.80
2019-03-09T00:16:57.002Z,-2.90
2019-03-09T00:19:24.416Z,-3.00
2019-03-09T00:21:51.353Z,-2.90
2019-03-09T00:24:24.414Z,-3.00
2019-03-09T00:26:52.413Z,-3.00
2019-03-09T00:29:34.309Z,-3.00
2019-03-09T00:32:04.146Z,-3.00
2019-03-09T00:34:30.992Z,-3.00
2019-03-09T00:36:57.910Z,-3.10
2019-03-09T00:39:25.574Z,-3.00
2019-03-09T00:41:52.333Z,-3.00
2019-03-09T00:44:19.217Z,-3.10
2019-03-09T00:46:46.045Z,-3.10
2019-03-09T00:49:13.620Z,-3.00
2019-03-09T00:51:41.572Z,-2.90
2019-03-09T00:54:08.338Z,-2.90
2019-03-09T00:56:35.395Z,-2.90
2019-03-09T00:59:03.039Z,-3.00
2019-03-09T01:01:30.292Z,-3.00
2019-03-09T01:03:57.689Z,-2.90
2019-03-09T01:08:48.216Z,-2.90
2019-03-09T01:11:15.034Z,-3.00
2019-03-09T01:13:43.394Z,-2.90
2019-03-09T01:16:10.408Z,-2.90
2019-03-09T01:18:38.032Z,-2.90
2019-03-09T01:21:04.898Z,-2.90
2019-03-09T01:23:31.794Z,-3.00
2019-03-09T01:25:58.792Z,-3.10
2019-03-09T01:28:25.744Z,-3.10
2019-03-09T01:30:52.623Z,-3.10
2019-03-09T01:33:19.450Z,-3.20
2019-03-09T01:35:47.032Z,-3.20
2019-03-09T01:38:13.850Z,-3.30
2019-03-09T01:40:42.135Z,-3.30
2019-03-09T01:43:09.866Z,-3.40
2019-03-09T01:45:37.391Z,-3.40
2019-03-09T01:48:04.240Z,-3.40
2019-03-09T01:50:31.233Z,-3.40
2019-03-09T01:52:58.927Z,-3.40
2019-03-09T01:55:26.426Z,-3.40
2019-03-09T01:57:53.374Z,-3.40
2019-03-09T02:00:20.323Z,-3.40
2019-03-09T02:02:47.174Z,-3.40
2019-03-09T02:05:14.235Z,-3.30
2019-03-09T02:07:41.902Z,-3.30
2019-03-09T02:10:09.778Z,-3.30
2019-03-09T02:12:37.416Z,-3.30
2019-03-09T02:15:05.120Z,-3.30
2019-03-09T02:17:32.009Z,-3.20
2019-03-09T02:19:58.852Z,-3.20
2019-03-09T02:22:25.715Z,-3.30
2019-03-09T02:24:52.649Z,-3.20
2019-03-09T02:27:19.564Z,-3.30
2019-03-09T02:29:46.548Z,-3.30
2019-03-09T02:32:14.141Z,-3.40
2019-03-09T02:34:41.020Z,-3.40
2019-03-09T02:37:08.005Z,-3.40
2019-03-09T02:39:35.022Z,-3.40
2019-03-09T02:42:02.004Z,-3.30
2019-03-09T02:44:28.830Z,-3.30
2019-03-09T02:46:55.744Z,-3.30
2019-03-09T02:49:22.637Z,-3.30
2019-03-09T02:51:49.496Z,-3.40
2019-03-09T02:54:16.509Z,-3.40
2019-03-09T02:56:43.374Z,-3.40
2019-03-09T02:59:10.203Z,-3.40
2019-03-09T03:01:40.502Z,-3.40
2019-03-09T03:04:07.460Z,-3.30
2019-03-09T03:06:35.035Z,-3.30
2019-03-09T03:09:01.838Z,-3.30
2019-03-09T03:11:28.703Z,-3.30
2019-03-09T03:13:55.531Z,-3.40
2019-03-09T03:16:22.396Z,-3.20
2019-03-09T03:18:49.979Z,-3.20
2019-03-09T03:21:17.556Z,-3.30
2019-03-09T03:23:44.353Z,-3.30
2019-03-09T03:26:11.203Z,-3.30
2019-03-09T03:28:37.960Z,-3.30
2019-03-09T03:31:04.845Z,-3.30
2019-03-09T03:33:31.774Z,-3.40
2019-03-09T03:35:58.700Z,-3.40
2019-03-09T03:38:26.273Z,-3.40
2019-03-09T03:40:53.973Z,-3.40
2019-03-09T03:43:21.500Z,-3.40
2019-03-09T03:45:48.292Z,-3.40
2019-03-09T03:48:15.110Z,-3.40
2019-03-09T03:50:42.714Z,-3.40
2019-03-09T03:53:09.542Z,-3.40
2019-03-09T03:55:37.284Z,-3.50
2019-03-09T03:58:04.931Z,-3.50
2019-03-09T04:00:31.720Z,-3.50
2019-03-09T04:02:58.568Z,-3.50
2019-03-09T04:05:25.352Z,-3.50
2019-03-09T04:07:52.188Z,-3.50
2019-03-09T04:10:19.091Z,-3.60
2019-03-09T04:12:45.953Z,-3.50
2019-03-09T04:15:13.699Z,-3.60
2019-03-09T04:17:40.520Z,-3.60
2019-03-09T04:20:11.170Z,-3.60
2019-03-09T04:22:38.027Z,-3.60
2019-03-09T04:25:04.884Z,-3.60
2019-03-09T04:27:31.739Z,-3.60
2019-03-09T04:29:58.576Z,-3.60
2019-03-09T04:32:25.468Z,-3.60
2019-03-09T04:34:53.009Z,-3.70
2019-03-09T04:37:19.827Z,-3.70
2019-03-09T04:39:46.626Z,-3.70
2019-03-09T04:42:13.408Z,-3.70
2019-03-09T04:44:40.317Z,-3.80
2019-03-09T04:47:07.095Z,-3.70
2019-03-09T04:49:33.899Z,-3.60
2019-03-09T04:52:00.906Z,-3.60
2019-03-09T04:54:27.754Z,-3.60
2019-03-09T04:56:54.539Z,-3.60
2019-03-09T04:59:22.165Z,-3.70
2019-03-09T05:01:49.706Z,-3.70
2019-03-09T05:04:34.316Z,-3.70
2019-03-09T05:07:01.105Z,-3.70
2019-03-09T05:09:53.648Z,-3.80
2019-03-09T05:12:20.557Z,-3.80
2019-03-09T05:14:47.309Z,-3.80
2019-03-09T05:17:14.868Z,-3.70
2019-03-09T05:19:42.467Z,-3.80
2019-03-09T05:22:09.287Z,-3.80
2019-03-09T05:24:36.041Z,-3.80
2019-03-09T05:27:02.842Z,-3.70
2019-03-09T05:29:29.841Z,-3.70
2019-03-09T05:31:56.658Z,-3.70
2019-03-09T05:34:23.785Z,-3.80
2019-03-09T05:36:51.301Z,-3.80
2019-03-09T05:39:18.166Z,-3.80
2019-03-09T05:41:44.939Z,-3.80
2019-03-09T05:44:11.746Z,-3.70
2019-03-09T05:46:38.663Z,-3.70
2019-03-09T05:49:05.491Z,-3.70
2019-03-09T05:51:32.348Z,-3.70
2019-03-09T05:53:59.200Z,-3.80
2019-03-09T05:56:26.237Z,-3.80
2019-03-09T05:58:53.002Z,-3.80
2019-03-09T06:01:19.735Z,-3.80
2019-03-09T06:03:46.490Z,-3.80
2019-03-09T06:06:13.285Z,-3.80
2019-03-09T06:08:40.061Z,-3.80
2019-03-09T06:11:06.921Z,-3.80
2019-03-09T06:13:33.717Z,-3.70
2019-03-09T06:16:00.942Z,-3.70
2019-03-09T06:18:27.699Z,-3.60
2019-03-09T06:20:55.172Z,-3.50
2019-03-09T06:23:21.952Z,-3.50
2019-03-09T06:25:48.803Z,-3.30
2019-03-09T06:28:16.414Z,-2.90
2019-03-09T06:30:43.272Z,-2.90
2019-03-09T06:33:28.946Z,-2.90
2019-03-09T06:36:01.474Z,-2.60
2019-03-09T06:41:28.450Z,-2.30
2019-03-09T06:43:55.326Z,-2.10
2019-03-09T06:46:22.175Z,-2.00
2019-03-09T06:48:49.013Z,-1.90
2019-03-09T06:51:15.959Z,-1.90
2019-03-09T06:53:42.804Z,-1.90
2019-03-09T06:56:09.644Z,-2.00
2019-03-09T06:58:36.597Z,-2.00
2019-03-09T07:01:11.351Z,-2.00
2019-03-09T07:03:38.367Z,-2.10
2019-03-09T07:06:05.212Z,-1.90
2019-03-09T07:08:32.158Z,-1.80
2019-03-09T07:10:59.104Z,-1.60
2019-03-09T07:13:26.865Z,-1.50
2019-03-09T07:15:53.712Z,-1.50
2019-03-09T07:18:20.652Z,-1.40
2019-03-09T07:20:47.807Z,-1.60
2019-03-09T07:23:14.646Z,-1.50
2019-03-09T07:25:41.486Z,-1.30
2019-03-09T07:28:08.335Z,-1.10
2019-03-09T07:30:35.283Z,-0.90
2019-03-09T07:33:02.221Z,-0.10
2019-03-09T07:35:29.270Z,0.30
2019-03-09T07:37:56.321Z,0.70
2019-03-09T07:40:23.065Z,0.60
2019-03-09T07:42:50.002Z,0.70
2019-03-09T07:45:17.565Z,1.40
2019-03-09T07:47:44.257Z,1.40
2019-03-09T07:50:12.178Z,2.00
2019-03-09T07:52:39.010Z,1.60
2019-03-09T07:55:06.674Z,1.20
2019-03-09T07:57:33.625Z,1.00
2019-03-09T08:00:00.583Z,0.80
2019-03-09T08:02:27.408Z,0.90
2019-03-09T08:04:54.352Z,1.00
2019-03-09T08:07:21.197Z,1.60
2019-03-09T08:09:48.149Z,3.00
2019-03-09T08:12:15.092Z,3.10
2019-03-09T08:14:41.945Z,3.60
2019-03-09T08:17:08.734Z,3.40
2019-03-09T08:19:35.457Z,3.30
2019-03-09T08:22:02.255Z,2.80
2019-03-09T08:24:29.056Z,2.70
2019-03-09T08:26:56.518Z,2.30
2019-03-09T08:29:23.237Z,2.20
2019-03-09T08:31:51.673Z,2.10
2019-03-09T08:34:18.396Z,2.10
2019-03-09T08:36:45.893Z,2.10
2019-03-09T08:39:12.716Z,2.10
2019-03-09T08:41:39.616Z,2.20
2019-03-09T08:44:06.327Z,2.40
2019-03-09T08:46:33.046Z,2.40
2019-03-09T08:49:00.104Z,2.60
2019-03-09T08:51:26.956Z,2.50
2019-03-09T08:53:53.771Z,2.40
2019-03-09T08:56:20.675Z,2.80
2019-03-09T08:58:48.506Z,3.50
2019-03-09T09:01:15.224Z,3.50
2019-03-09T09:03:42.883Z,4.10
2019-03-09T09:06:10.318Z,4.60
2019-03-09T09:08:37.835Z,4.50
2019-03-09T09:11:04.846Z,4.50
2019-03-09T09:13:31.548Z,4.60
2019-03-09T09:15:58.436Z,4.60
2019-03-09T09:18:25.478Z,5.00
2019-03-09T09:20:52.332Z,5.30
2019-03-09T09:23:19.079Z,5.00
2019-03-09T09:25:46.196Z,4.50
2019-03-09T09:28:13.700Z,4.00
2019-03-09T09:30:40.471Z,4.00
2019-03-09T09:33:07.256Z,3.90
2019-03-09T09:35:34.008Z,3.90
2019-03-09T09:38:00.768Z,3.80
2019-03-09T09:40:27.996Z,3.50
2019-03-09T09:42:56.100Z,3.50
2019-03-09T09:45:23.663Z,3.40
2019-03-09T09:47:50.494Z,3.30
2019-03-09T09:50:17.252Z,3.50
2019-03-09T09:52:44.064Z,3.20
2019-03-09T09:55:10.833Z,3.20
2019-03-09T09:57:38.553Z,3.50
2019-03-09T10:00:17.473Z,3.50
2019-03-09T10:02:44.242Z,3.30
2019-03-09T10:05:11.086Z,3.30
2019-03-09T10:07:37.806Z,3.50
2019-03-09T10:10:07.529Z,3.40
2019-03-09T10:12:34.311Z,3.60
2019-03-09T10:15:01.079Z,3.50
2019-03-09T10:17:28.553Z,3.60
2019-03-09T10:19:55.455Z,3.50
2019-03-09T10:22:22.404Z,3.80
2019-03-09T10:24:49.858Z,4.20
2019-03-09T10:27:16.858Z,4.20
2019-03-09T10:29:43.637Z,4.20
2019-03-09T10:32:10.410Z,3.80
2019-03-09T10:34:38.156Z,3.90
2019-03-09T10:37:04.938Z,3.80
2019-03-09T10:39:31.722Z,3.90
2019-03-09T10:41:59.192Z,4.20
2019-03-09T10:44:26.698Z,4.20
2019-03-09T10:46:53.576Z,4.10
2019-03-09T10:49:20.290Z,4.40
2019-03-09T10:51:47.131Z,4.10
2019-03-09T10:54:14.623Z,3.90
2019-03-09T10:56:41.318Z,3.80
2019-03-09T10:59:08.019Z,3.70
2019-03-09T11:01:35.154Z,3.50
2019-03-09T11:04:01.907Z,3.70
2019-03-09T11:06:28.589Z,3.60
2019-03-09T11:08:55.322Z,3.90
2019-03-09T11:11:22.193Z,4.00
2019-03-09T11:13:52.163Z,4.40
2019-03-09T11:16:16.582Z,4.00
2019-03-09T11:18:44.321Z,3.70
2019-03-09T11:21:11.903Z,3.80
2019-03-09T11:23:39.151Z,3.80
2019-03-09T11:26:05.967Z,3.90
2019-03-09T11:28:33.438Z,3.60
2019-03-09T11:31:00.867Z,3.70
2019-03-09T11:33:28.381Z,3.60
2019-03-09T11:35:55.058Z,3.50
2019-03-09T11:38:21.736Z,3.60
2019-03-09T11:40:56.920Z,3.00
2019-03-09T11:43:16.699Z,3.00
2019-03-09T11:45:43.577Z,2.90
2019-03-09T11:48:10.442Z,2.70
2019-03-09T11:50:37.284Z,2.60
2019-03-09T11:53:04.037Z,2.50
2019-03-09T11:55:31.652Z,3.10
2019-03-09T11:57:58.693Z,3.00
2019-03-09T12:00:28.725Z,3.00
2019-03-09T12:02:56.220Z,2.70
2019-03-09T12:05:23.010Z,2.70
2019-03-09T12:07:50.532Z,2.70
2019-03-09T12:10:17.429Z,2.70
2019-03-09T12:12:44.985Z,2.90
2019-03-09T12:15:14.752Z,2.80
2019-03-09T12:17:41.706Z,2.80
2019-03-09T12:20:08.667Z,3.10
2019-03-09T12:22:35.510Z,3.00
2019-03-09T12:25:03.023Z,2.90
2019-03-09T12:27:30.065Z,2.80
2019-03-09T12:29:58.809Z,3.30
2019-03-09T12:32:25.606Z,3.40
2019-03-09T12:34:53.458Z,3.40
2019-03-09T12:37:20.298Z,3.40
2019-03-09T12:39:48.026Z,3.40
2019-03-09T12:42:14.999Z,3.50
2019-03-09T12:44:41.813Z,3.10
2019-03-09T12:47:09.340Z,3.40
2019-03-09T12:49:36.068Z,3.40
2019-03-09T12:52:02.898Z,3.60
2019-03-09T12:54:29.637Z,3.20
2019-03-09T12:56:56.481Z,3.30
2019-03-09T12:59:23.221Z,2.90
2019-03-09T13:01:49.972Z,3.30
2019-03-09T13:04:16.909Z,3.60
2019-03-09T13:06:44.054Z,3.90
2019-03-09T13:09:10.959Z,4.30
2019-03-09T13:11:38.110Z,4.40
2019-03-09T13:14:04.993Z,4.80
2019-03-09T13:16:32.662Z,5.20
2019-03-09T13:18:59.503Z,5.20
2019-03-09T13:21:26.239Z,4.80
2019-03-09T13:23:53.186Z,5.00
2019-03-09T13:26:19.930Z,5.30
2019-03-09T13:28:46.666Z,5.90
2019-03-09T13:31:14.224Z,5.20
2019-03-09T13:33:41.089Z,5.20
2019-03-09T13:36:07.912Z,5.30
2019-03-09T13:38:34.858Z,5.50
2019-03-09T13:41:01.595Z,5.10
2019-03-09T13:44:28.510Z,4.90
2019-03-09T13:46:55.290Z,4.60
2019-03-09T13:49:22.029Z,4.70
2019-03-09T13:51:49.517Z,4.90
2019-03-09T13:54:16.332Z,4.90
2019-03-09T13:56:43.073Z,4.90
2019-03-09T13:59:10.587Z,5.00
2019-03-09T14:01:37.294Z,4.90
2019-03-09T14:04:04.420Z,4.70
2019-03-09T14:06:31.150Z,4.80
2019-03-09T14:08:57.899Z,4.60
2019-03-09T14:11:24.751Z,4.40
2019-03-09T14:13:51.549Z,4.50
2019-03-09T14:16:18.329Z,4.60
2019-03-09T14:18:45.129Z,4.50
2019-03-09T14:21:11.909Z,4.60
2019-03-09T14:23:38.730Z,4.20
2019-03-09T14:26:05.566Z,4.10
2019-03-09T14:28:32.379Z,4.20
2019-03-09T14:30:59.223Z,4.00
2019-03-09T14:33:28.821Z,4.00
2019-03-09T14:35:53.512Z,4.00
2019-03-09T14:38:20.238Z,3.60
2019-03-09T14:40:47.784Z,3.80
2019-03-09T14:43:14.727Z,3.80
2019-03-09T14:45:41.695Z,3.70
2019-03-09T14:48:08.490Z,3.50
2019-03-09T14:50:35.304Z,3.50
2019-03-09T14:53:02.861Z,3.60
2019-03-09T14:55:30.607Z,3.80
2019-03-09T14:57:57.421Z,3.80
2019-03-09T15:00:24.368Z,3.90
2019-03-09T15:02:51.208Z,3.90
2019-03-09T15:05:18.155Z,4.00
2019-03-09T15:07:45.016Z,3.80
2019-03-09T15:10:13.274Z,3.60
2019-03-09T15:12:39.982Z,3.60
2019-03-09T15:15:06.825Z,3.30
2019-03-09T15:17:33.572Z,3.10
2019-03-09T15:20:00.343Z,3.10
2019-03-09T15:22:27.122Z,3.20
2019-03-09T15:24:54.742Z,3.10
2019-03-09T15:27:21.793Z,3.00
2019-03-09T15:29:48.633Z,3.00
2019-03-09T15:32:17.114Z,3.00
2019-03-09T15:34:44.063Z,3.00
2019-03-09T15:37:11.721Z,2.80
2019-03-09T15:39:38.583Z,2.80
2019-03-09T15:42:05.392Z,2.70
2019-03-09T15:44:32.165Z,2.70
2019-03-09T15:46:58.976Z,2.60
2019-03-09T15:49:25.879Z,2.60
2019-03-09T15:51:52.692Z,2.50
2019-03-09T15:54:19.527Z,2.50
2019-03-09T15:56:46.338Z,2.60
2019-03-09T15:59:13.308Z,2.60
2019-03-09T16:01:40.150Z,2.60
2019-03-09T16:04:07.098Z,2.50
2019-03-09T16:06:33.837Z,2.40
2019-03-09T16:09:00.578Z,2.40
2019-03-09T16:11:27.525Z,2.20
2019-03-09T16:13:54.469Z,2.30
2019-03-09T16:16:21.429Z,2.20
2019-03-09T16:18:48.970Z,2.10
2019-03-09T16:21:15.715Z,2.10
2019-03-09T16:23:42.656Z,2.10
2019-03-09T16:26:09.604Z,2.10
2019-03-09T16:28:36.285Z,2.00
2019-03-09T16:31:03.082Z,1.90
2019-03-09T16:33:29.930Z,1.80
2019-03-09T16:35:56.982Z,1.70
2019-03-09T16:38:23.814Z,1.60
2019-03-09T16:40:50.764Z,1.40
2019-03-09T16:43:19.088Z,1.50
2019-03-09T16:45:46.600Z,1.50
2019-03-09T16:48:13.339Z,1.40
2019-03-09T16:50:40.288Z,1.30
2019-03-09T16:53:07.233Z,1.30
2019-03-09T16:55:34.074Z,1.40
2019-03-09T16:58:01.023Z,1.40
2019-03-09T17:00:27.965Z,1.50
2019-03-09T17:02:54.806Z,1.50
2019-03-09T17:05:21.650Z,1.60
2019-03-09T17:07:48.494Z,1.60
2019-03-09T17:10:15.444Z,1.60
2019-03-09T17:12:42.283Z,1.60
2019-03-09T17:15:25.001Z,1.50
2019-03-09T17:17:51.912Z,1.60
2019-03-09T17:20:19.605Z,1.60
2019-03-09T17:22:46.342Z,1.60
2019-03-09T17:25:13.187Z,1.70
2019-03-09T17:27:40.132Z,1.70
2019-03-09T17:30:09.741Z,1.70
2019-03-09T17:32:36.439Z,1.70
2019-03-09T17:35:03.222Z,1.70
2019-03-09T17:37:30.062Z,1.70
2019-03-09T17:39:56.907Z,1.70
2019-03-09T17:42:23.750Z,1.60
2019-03-09T17:44:50.693Z,1.70
2019-03-09T17:47:17.538Z,1.80
2019-03-09T17:49:44.278Z,1.70
2019-03-09T17:52:11.250Z,1.80
2019-03-09T17:54:38.170Z,1.60
2019-03-09T17:57:04.888Z,1.40
2019-03-09T17:59:31.649Z,1.40
2019-03-09T18:01:58.492Z,1.40
2019-03-09T18:04:25.232Z,1.30
2019-03-09T18:06:52.080Z,1.20
2019-03-09T18:09:18.818Z,1.20
2019-03-09T18:11:45.672Z,1.20
2019-03-09T18:14:12.502Z,1.10
2019-03-09T18:16:39.181Z,1.20
2019-03-09T18:19:05.991Z,1.10
2019-03-09T18:21:32.823Z,1.20
2019-03-09T18:24:00.727Z,1.00
2019-03-09T18:26:27.579Z,1.00
2019-03-09T18:28:54.492Z,1.10
2019-03-09T18:31:21.433Z,1.00
2019-03-09T18:33:48.275Z,1.10
2019-03-09T18:36:15.221Z,0.80
2019-03-09T18:38:42.166Z,0.70
2019-03-09T18:41:09.209Z,0.70
2019-03-09T18:43:35.912Z,0.60
2019-03-09T18:46:03.421Z,0.60
2019-03-09T18:48:30.914Z,0.70
2019-03-09T18:50:58.424Z,0.60
2019-03-09T18:53:25.150Z,0.60
2019-03-09T18:55:58.854Z,0.60
2019-03-09T18:58:18.952Z,0.60
2019-03-09T19:00:45.897Z,0.60
2019-03-09T19:03:12.747Z,0.60
2019-03-09T19:05:39.573Z,0.60
2019-03-09T19:08:06.431Z,0.60
2019-03-09T19:10:33.170Z,0.70
2019-03-09T19:13:00.012Z,0.70
2019-03-09T19:15:26.852Z,0.50
2019-03-09T19:17:53.794Z,0.40
2019-03-09T19:20:20.754Z,0.30
2019-03-09T19:22:48.406Z,0.30
2019-03-09T19:25:15.561Z,0.30
2019-03-09T19:27:42.706Z,0.30
2019-03-09T19:30:13.645Z,0.30
2019-03-09T19:32:40.802Z,0.30
2019-03-09T19:35:07.667Z,0.30
2019-03-09T19:37:34.581Z,0.30
2019-03-09T19:40:01.634Z,0.30
2019-03-09T19:42:29.401Z,0.30
2019-03-09T19:44:57.409Z,0.30
2019-03-09T19:47:25.482Z,0.20
2019-03-09T19:49:52.245Z,0.20
2019-03-09T19:52:19.034Z,0.00
2019-03-09T19:54:45.909Z,0.10
2019-03-09T19:57:13.442Z,0.10
2019-03-09T19:59:41.041Z,0.00
2019-03-09T20:02:08.030Z,0.00
2019-03-09T20:04:34.977Z,-0.10
2019-03-09T20:07:01.929Z,-0.20
2019-03-09T20:09:29.587Z,-0.40
2019-03-09T20:11:56.528Z,-0.50
2019-03-09T20:14:23.293Z,-0.40
2019-03-09T20:16:50.216Z,-0.40
2019-03-09T20:19:16.984Z,-0.50
2019-03-09T20:21:44.005Z,-0.40
2019-03-09T20:24:11.034Z,-0.50
2019-03-09T20:26:38.001Z,-0.40
2019-03-09T20:29:04.943Z,-0.30
2019-03-09T20:31:31.888Z,-0.40
2019-03-09T20:33:58.988Z,-0.40
2019-03-09T20:36:25.890Z,-0.50
2019-03-09T20:38:52.824Z,-0.50
2019-03-09T20:41:19.768Z,-0.60
2019-03-09T20:43:46.717Z,-0.60
2019-03-09T20:46:13.665Z,-0.50
2019-03-09T20:48:40.602Z,-0.60
2019-03-09T20:51:07.554Z,-0.70
2019-03-09T20:53:34.394Z,-0.80
2019-03-09T20:56:01.441Z,-0.90
2019-03-09T20:58:28.592Z,-1.00
2019-03-09T21:00:56.254Z,-0.90
2019-03-09T21:03:23.109Z,-0.90
2019-03-09T21:05:50.046Z,-1.00
2019-03-09T21:08:17.621Z,-1.00
2019-03-09T21:10:44.648Z,-1.00
2019-03-09T21:13:11.598Z,-1.10
2019-03-09T21:15:39.985Z,-1.30
2019-03-09T21:18:06.723Z,-1.30
2019-03-09T21:20:33.560Z,-1.20
2019-03-09T21:23:00.503Z,-1.30
2019-03-09T21:25:27.345Z,-1.30
2019-03-09T21:27:54.088Z,-1.30
2019-03-09T21:30:21.135Z,-1.40
2019-03-09T21:32:48.306Z,-1.40
2019-03-09T21:35:15.950Z,-1.40
2019-03-09T21:37:42.793Z,-1.40
2019-03-09T21:40:09.629Z,-1.50
2019-03-09T21:42:36.388Z,-1.50
2019-03-09T21:45:05.981Z,-1.50
2019-03-09T21:47:32.926Z,-1.50
2019-03-09T21:49:59.666Z,-1.50
2019-03-09T21:52:26.611Z,-1.50
2019-03-09T21:54:53.457Z,-1.60
2019-03-09T21:57:20.302Z,-1.60
2019-03-09T21:59:47.038Z,-1.40
2019-03-09T22:02:13.985Z,-1.40
2019-03-09T22:04:40.830Z,-1.30
2019-03-09T22:07:07.668Z,-1.40
2019-03-09T22:09:34.520Z,-1.40
2019-03-09T22:12:01.406Z,-1.40
2019-03-09T22:14:28.912Z,-1.50
2019-03-09T22:16:56.831Z,-1.50
2019-03-09T22:19:22.700Z,-1.60
2019-03-09T22:21:49.443Z,-1.50
2019-03-09T22:24:16.285Z,-1.60
2019-03-09T22:26:43.128Z,-1.50
2019-03-09T22:29:09.974Z,-1.50
2019-03-09T22:31:36.712Z,-1.50
2019-03-09T22:34:03.554Z,-1.60
2019-03-09T22:36:30.397Z,-1.60
2019-03-09T22:38:57.140Z,-1.60
2019-03-09T22:41:23.878Z,-1.60
2019-03-09T22:43:50.720Z,-1.60
2019-03-09T22:46:17.667Z,-1.60
2019-03-09T22:48:44.508Z,-1.60
2019-03-09T22:51:11.394Z,-1.70
2019-03-09T22:53:38.915Z,-1.60
2019-03-09T22:56:05.659Z,-1.60
2019-03-09T22:58:32.904Z,-1.60
2019-03-09T23:01:00.260Z,-1.60
2019-03-09T23:03:27.411Z,-1.70
2019-03-09T23:05:54.564Z,-1.80
2019-03-09T23:08:21.407Z,-1.70
2019-03-09T23:10:51.352Z,-1.70
2019-03-09T23:13:19.392Z,-1.70
2019-03-09T23:15:46.341Z,-1.70
2019-03-09T23:18:13.283Z,-1.80
2019-03-09T23:20:40.230Z,-1.70
2019-03-09T23:23:07.274Z,-1.60
2019-03-09T23:25:34.529Z,-1.60
2019-03-09T23:28:02.806Z,-1.70
2019-03-09T23:30:30.698Z,-1.60
2019-03-09T23:32:57.515Z,-1.60
2019-03-09T23:35:24.441Z,-1.70
2019-03-09T23:37:51.910Z,-1.60
2019-03-09T23:40:18.913Z,-1.60
2019-03-09T23:42:45.913Z,-1.60
2019-03-09T23:45:14.698Z,-1.60
2019-03-09T23:47:41.539Z,-1.50
2019-03-09T23:50:09.303Z,-1.50
2019-03-09T23:52:36.350Z,-1.50
2019-03-09T23:55:04.426Z,-1.50
2019-03-09T23:57:32.394Z,-1.50
2019-03-09T23:59:59.544Z,-1.60
